createdAt,value
2022-12-18T00:01:58.111Z,77.27954119744031
2022-12-18T00:06:55.329Z,76.89963285918076
2022-12-18T00:11:52.554Z,76.99744974940307
2022-12-18T00:16:49.830Z,77.3892256025099
2022-12-18T00:21:47.130Z,78.73017949078566
2022-12-18T00:26:44.326Z,78.38888040231967
2022-12-18T00:31:42.694Z,78.414665228293
2022-12-18T00:36:39.859Z,79.36391255132504
2022-12-18T00:41:36.126Z,78.76950234066054
2022-12-18T00:46:32.404Z,79.82171670541176
2022-12-18T00:51:29.636Z,79.47913879630849
2022-12-18T00:56:25.911Z,78.89839457473803
2022-12-18T01:01:22.297Z,79.04875520936699
2022-12-18T01:06:18.380Z,79.16478326118829
2022-12-18T01:11:16.656Z,79.14945593658841
2022-12-18T01:16:13.012Z,78.03503605657993
2022-12-18T01:21:11.153Z,76.72769435476201
2022-12-18T01:26:10.410Z,77.57456818676599
2022-12-18T01:31:11.788Z,78.52334678159174
2022-12-18T01:36:17.873Z,75.99199987847429
2022-12-18T01:41:15.175Z,77.1580485454821
2022-12-18T01:46:11.453Z,80.40039392470658
2022-12-18T01:51:10.665Z,80.61873042032296
2022-12-18T02:01:16.352Z,80.56508657589764
2022-12-18T02:06:16.424Z,80.27755659198444
2022-12-18T02:11:19.663Z,81.04743718051117
2022-12-18T02:16:24.922Z,80.11052313219137
2022-12-18T02:21:33.114Z,81.05565913844384
2022-12-18T02:26:38.320Z,79.25763774147413
2022-12-18T02:31:37.647Z,78.96609505192879
2022-12-18T02:36:34.859Z,78.27045397660191
2022-12-18T02:41:32.137Z,78.00289565105481
2022-12-18T02:46:31.375Z,75.89487046898074
2022-12-18T02:51:36.591Z,73.95596618019762
2022-12-18T02:56:38.858Z,75.4982166504826
2022-12-18T03:01:42.255Z,75.17822410205994
2022-12-18T03:06:42.395Z,77.95156827764667
2022-12-18T03:11:42.587Z,78.89460085233382
2022-12-18T03:16:41.855Z,78.54174409292017
2022-12-18T03:21:43.087Z,79.78331189465334
2022-12-18T07:13:50.306Z,70.8216546107414
2022-12-18T07:18:46.509Z,70.67483496869926
2022-12-18T07:23:43.126Z,71.87897106407031
2022-12-18T07:28:40.029Z,70.37807863289699
2022-12-18T07:33:36.612Z,71.40065578753398
2022-12-18T07:38:35.529Z,71.57029609786076
2022-12-18T07:43:30.829Z,70.94097936129376
2022-12-18T07:48:28.066Z,73.56448040847181
2022-12-18T07:53:24.337Z,74.9888268520784
2022-12-18T07:58:20.591Z,76.20853641402977
2022-12-18T08:03:16.936Z,75.37111825491817
2022-12-18T08:08:13.131Z,76.06073468965353
2022-12-18T08:13:09.365Z,73.36346771406187
2022-12-18T08:18:08.103Z,74.99354174211663
2022-12-18T08:23:10.841Z,72.94331964763622
2022-12-18T08:28:07.117Z,72.14671118475877
2022-12-18T08:33:03.410Z,74.23113065241488
2022-12-18T08:37:59.603Z,74.41707076778619
2022-12-18T08:42:55.889Z,73.5040577906844
2022-12-18T08:47:52.275Z,73.74934799434483
2022-12-18T08:52:48.417Z,69.53883054612294
2022-12-18T08:57:48.666Z,74.89050225572251
2022-12-18T09:02:45.058Z,76.0352244645661
2022-12-18T09:07:41.178Z,72.03347450269524
2022-12-18T09:12:37.476Z,75.30163544228256
2022-12-18T09:17:33.685Z,74.62146460565039
2022-12-18T09:22:28.937Z,74.3224661365413
2022-12-18T09:27:25.239Z,72.84671758481304
2022-12-18T09:32:22.606Z,72.36675737971883
2022-12-18T09:37:18.881Z,68.0005110084751
2022-12-18T09:42:20.955Z,68.00116783874742
2022-12-18T09:47:20.236Z,69.2043138398748
2022-12-18T09:52:22.634Z,66.30889511214616
2022-12-18T09:57:19.740Z,66.45783641250598
2022-12-18T10:02:18.138Z,74.24911008661007
2022-12-18T10:07:22.251Z,59.76077128736813
2022-12-18T10:12:29.480Z,61.58936359356905
2022-12-18T10:17:37.694Z,63.807879739454165
2022-12-18T10:22:44.945Z,65.22064895937224
2022-12-18T10:27:45.153Z,59.14794491806301
2022-12-18T10:38:00.649Z,58.470091500496714
2022-12-18T10:43:05.870Z,58.411816924751236
2022-12-18T10:48:02.134Z,59.724727616237296
2022-12-18T10:53:00.403Z,55.12733880255778
2022-12-18T10:58:26.716Z,55.69400147408028
2022-12-18T11:03:32.830Z,51.8691725940828
2022-12-18T11:08:29.066Z,51.57015965293471
2022-12-18T11:13:26.294Z,47.52608007898825
2022-12-18T11:18:27.564Z,48.78942208253109
2022-12-18T11:23:27.852Z,46.70713122169667
2022-12-18T11:28:28.112Z,47.38684252598732
2022-12-18T11:33:26.305Z,44.747511924435535
2022-12-18T11:38:26.595Z,44.255620006728506
2022-12-18T11:43:27.823Z,42.80026485540129
2022-12-18T11:48:30.042Z,42.815630828626986
2022-12-18T11:53:27.356Z,45.304586900815245
2022-12-18T11:58:34.584Z,43.29851415565209
2022-12-18T12:03:47.813Z,44.555526543592784
2022-12-18T12:08:59.008Z,42.82753124238702
2022-12-18T12:14:10.215Z,40.33847188338579
2022-12-18T12:19:19.444Z,40.427416146333634
2022-12-18T12:24:26.670Z,41.18684978197386
2022-12-18T12:29:35.901Z,40.20542325523083
2022-12-18T12:34:41.175Z,40.16172778284605
2022-12-18T12:39:41.400Z,38.3294654513655
2022-12-18T12:44:42.647Z,36.95764212465356
2022-12-18T12:49:45.888Z,37.35210962649319
2022-12-18T12:54:48.123Z,37.841216531121425
2022-12-18T12:59:50.407Z,38.17397010847235
2022-12-18T13:04:57.596Z,42.28278855914158
2022-12-18T13:10:22.932Z,39.66343432593403
2022-12-18T13:15:22.084Z,40.68783938901086
2022-12-18T13:20:17.366Z,37.490597813385556
2022-12-18T13:25:31.540Z,41.43355255381285
2022-12-18T13:31:04.693Z,39.76243559773076
2022-12-18T13:36:29.861Z,39.37525433166005
2022-12-18T13:41:28.146Z,39.59622449129993
2022-12-18T13:46:42.355Z,40.98435180694401
2022-12-18T13:51:40.619Z,41.321839566650056
2022-12-18T13:56:43.863Z,46.31370848252857
2022-12-18T14:01:56.498Z,47.2006823670316
2022-12-18T14:06:55.334Z,44.63587454359809
2022-12-18T14:11:55.589Z,44.02380479568468
2022-12-18T14:16:51.890Z,43.59171645288442
2022-12-18T14:21:53.056Z,44.10472165334725
2022-12-18T14:26:54.304Z,46.33183717656418
2022-12-18T14:32:16.496Z,47.634290507888466
2022-12-18T14:37:14.757Z,49.71138624849269
2022-12-18T14:42:11.212Z,51.30748689825116
2022-12-18T14:47:14.263Z,53.067631626811504
2022-12-18T14:52:18.509Z,55.793094441030114
2022-12-18T14:57:21.738Z,56.302902727596745
2022-12-18T15:02:21.268Z,56.573610367827385
2022-12-18T15:07:19.334Z,58.017887820992904
2022-12-18T15:12:23.504Z,57.07450986080731
2022-12-18T15:17:23.718Z,59.382425536176264
2022-12-18T15:22:23.002Z,59.911070638088994
2022-12-18T15:27:21.253Z,61.897859289375425
2022-12-18T15:32:19.690Z,61.80158926510714
2022-12-18T15:37:15.928Z,62.2296264647791
2022-12-18T15:42:12.027Z,62.26186442872274
2022-12-18T15:47:11.904Z,63.106778876606306
2022-12-18T15:52:12.490Z,62.347931965061804
2022-12-18T15:57:09.746Z,64.58822060270195
2022-12-18T16:02:15.192Z,63.041546172612364
2022-12-18T16:07:16.086Z,63.1257153965799
2022-12-18T16:12:17.674Z,63.946774693668864
2022-12-18T16:17:13.854Z,64.3803638266682
2022-12-18T16:22:16.032Z,64.55457926678993
2022-12-18T16:27:12.292Z,64.29513811499264
2022-12-18T16:32:09.535Z,63.577390648754125
2022-12-18T16:37:06.285Z,63.72023058900392
2022-12-18T16:42:05.965Z,63.938919007785685
2022-12-18T16:47:02.335Z,63.31180719462995
2022-12-18T16:51:58.594Z,63.59685181057419
2022-12-18T16:56:55.803Z,63.510840102674955
2022-12-18T17:01:52.231Z,64.41417016309894
2022-12-18T17:06:48.354Z,64.96337767504336
2022-12-18T17:11:44.589Z,65.37427387940797
2022-12-18T17:16:40.151Z,65.42981018890046
2022-12-18T17:21:38.113Z,65.62671621287207
2022-12-18T17:26:35.340Z,63.50598650064074
2022-12-18T17:31:32.681Z,64.53000112866654
2022-12-18T17:36:31.061Z,65.4572596294196
2022-12-18T17:41:31.112Z,65.35014529379129
2022-12-18T17:46:28.500Z,65.08447757272916
2022-12-18T17:51:24.673Z,64.99272316655947
2022-12-18T17:56:25.956Z,64.85828786794681
2022-12-18T18:01:23.364Z,64.2531443739141
2022-12-18T18:06:19.436Z,64.90230462667552
2022-12-18T18:11:16.681Z,64.5029029044796
2022-12-18T18:16:13.049Z,64.82989869943302
2022-12-18T18:21:11.165Z,65.3956254095211
2022-12-18T18:26:08.440Z,65.44351108140165
2022-12-18T18:31:04.756Z,65.88040628410265
2022-12-18T18:36:00.967Z,65.54979577377617
2022-12-18T18:40:58.242Z,65.14192514132358
2022-12-18T18:45:55.582Z,64.3064569292459
2022-12-18T18:50:59.775Z,65.41140418534454
2022-12-18T18:56:32.609Z,65.91137284486229
2022-12-18T19:01:35.330Z,66.73877960403861
2022-12-18T19:06:32.389Z,67.54783438232629
2022-12-18T19:11:33.182Z,67.7507797035568
2022-12-18T19:16:35.991Z,66.76561265868867
2022-12-18T19:21:34.781Z,67.96428460308867
2022-12-18T19:26:32.401Z,69.11280992987906
2022-12-18T19:31:35.582Z,68.7610451108035
2022-12-18T19:36:33.903Z,68.2932337325899
2022-12-18T19:41:35.162Z,66.39056357199118
2022-12-18T19:46:31.367Z,66.52586154346497
2022-12-18T19:51:28.670Z,65.68743412776224
2022-12-18T19:56:25.886Z,66.66408764229769
2022-12-18T20:01:23.355Z,68.0488040522692
2022-12-18T20:06:23.403Z,68.45648134362837
2022-12-18T20:11:20.661Z,68.44173681672447
2022-12-18T20:16:17.005Z,68.01782360314404
2022-12-18T20:21:14.108Z,68.20728546844478
2022-12-18T20:26:10.451Z,68.86678730933171
2022-12-18T20:31:06.751Z,69.50736973107692
2022-12-18T20:36:04.942Z,69.80625294635323
2022-12-18T20:41:01.249Z,69.24038881755277
2022-12-18T20:46:01.752Z,69.86294169092136
2022-12-18T20:50:57.703Z,69.27030767371748
2022-12-18T20:55:54.970Z,69.35558828649671
2022-12-18T21:01:01.308Z,69.44996626952704
2022-12-18T21:05:57.651Z,69.09161814183618
2022-12-18T21:10:55.518Z,70.68820706385138
2022-12-18T21:15:53.016Z,70.15709182102513
2022-12-18T21:20:50.252Z,70.22049171449287
2022-12-18T21:25:46.644Z,70.2032137635202
2022-12-18T21:30:45.782Z,70.12667699639185
2022-12-18T21:35:42.039Z,69.92346039324701
2022-12-18T21:40:38.284Z,70.33564582551861
2022-12-18T21:45:34.548Z,69.9520381958098
2022-12-18T21:50:32.765Z,69.48939998467357
2022-12-18T21:55:28.061Z,70.41911475337304
2022-12-18T22:00:24.327Z,69.43784184017109
2022-12-18T22:05:19.610Z,69.81652453247251
2022-12-18T22:10:15.835Z,69.49929289351829
2022-12-18T22:15:13.198Z,70.21144199707533
2022-12-18T22:20:17.353Z,69.78636158007359
2022-12-18T22:25:12.575Z,68.80898822869723
2022-12-18T22:30:10.847Z,69.24013808249512
2022-12-18T22:35:10.633Z,69.29391163444691
2022-12-18T22:40:13.032Z,70.44969619012068
2022-12-18T22:45:09.595Z,70.26857386239442
2022-12-18T22:50:06.863Z,71.25344711640588
2022-12-18T22:55:03.137Z,70.43289835152667
2022-12-18T22:59:59.380Z,69.24660823642917
2022-12-18T23:04:55.613Z,66.59003545481696
2022-12-18T23:09:53.715Z,66.54137142941258
2022-12-18T23:14:57.196Z,65.87557982363565
2022-12-18T23:19:53.390Z,59.685174984262396
2022-12-18T23:24:49.654Z,65.87108156023696
2022-12-18T23:29:45.891Z,67.10937622739239
2022-12-18T23:34:45.157Z,68.39955949307561
2022-12-18T23:39:42.412Z,67.4238783519481
2022-12-18T23:44:38.678Z,68.83598252608061
2022-12-18T23:49:35.935Z,67.59717043908026
2022-12-18T23:54:32.999Z,68.94930223880351
2022-12-18T23:59:29.445Z,68.93462689778426
